sensor_id;sensor_type;location;lat;lon;timestamp;pressure;altitude;pressure_sealevel;temperature;humidity
7524;BME280;3803;51.666;7.630;2024-01-30T00:00:07;102140.13;;;7.96;56.57
7524;BME280;3803;51.666;7.630;2024-01-30T00:00:28;102134.81;;;7.94;56.58
7524;BME280;3803;51.666;7.630;2024-01-30T00:00:49;102137.34;;;7.93;56.52
7524;BME280;3803;51.666;7.630;2024-01-30T00:01:09;102133.03;;;7.93;56.55
7524;BME280;3803;51.666;7.630;2024-01-30T00:01:30;102143.69;;;7.98;56.51
7524;BME280;3803;51.666;7.630;2024-01-30T00:01:50;102146.13;;;7.95;56.34
7524;BME280;3803;51.666;7.630;2024-01-30T00:02:11;102144.44;;;7.95;56.17
7524;BME280;3803;51.666;7.630;2024-01-30T00:02:32;102146.22;;;7.97;56.57
7524;BME280;3803;51.666;7.630;2024-01-30T00:02:53;102140.00;;;7.94;56.03
7524;BME280;3803;51.666;7.630;2024-01-30T00:03:13;102148.63;;;7.93;56.44
7524;BME280;3803;51.666;7.630;2024-01-30T00:03:34;102139.94;;;7.93;56.44
7524;BME280;3803;51.666;7.630;2024-01-30T00:03:54;102134.63;;;7.91;56.74
7524;BME280;3803;51.666;7.630;2024-01-30T00:04:15;102139.94;;;7.93;56.30
7524;BME280;3803;51.666;7.630;2024-01-30T00:04:37;102143.25;;;7.90;56.37
7524;BME280;3803;51.666;7.630;2024-01-30T00:04:57;102138.75;;;7.88;56.52
7524;BME280;3803;51.666;7.630;2024-01-30T00:05:18;102131.88;;;7.88;56.28
7524;BME280;3803;51.666;7.630;2024-01-30T00:05:39;102137.94;;;7.89;56.41
7524;BME280;3803;51.666;7.630;2024-01-30T00:06:00;102144.22;;;7.92;56.16
7524;BME280;3803;51.666;7.630;2024-01-30T00:06:21;102137.13;;;7.90;56.50
7524;BME280;3803;51.666;7.630;2024-01-30T00:06:43;102140.53;;;7.89;56.59
7524;BME280;3803;51.666;7.630;2024-01-30T00:07:04;102138.75;;;7.88;56.14
7524;BME280;3803;51.666;7.630;2024-01-30T00:07:24;102139.66;;;7.88;56.09
7524;BME280;3803;51.666;7.630;2024-01-30T00:07:45;102148.44;;;7.90;56.27
7524;BME280;3803;51.666;7.630;2024-01-30T00:08:06;102135.25;;;7.87;56.35
7524;BME280;3803;51.666;7.630;2024-01-30T00:08:26;102145.63;;;7.87;56.07
7524;BME280;3803;51.666;7.630;2024-01-30T00:08:47;102140.66;;;7.90;56.33
7524;BME280;3803;51.666;7.630;2024-01-30T00:09:09;102143.13;;;7.89;56.42
7524;BME280;3803;51.666;7.630;2024-01-30T00:09:31;102140.25;;;7.84;56.55
7524;BME280;3803;51.666;7.630;2024-01-30T00:09:52;102139.47;;;7.85;56.15
7524;BME280;3803;51.666;7.630;2024-01-30T00:10:12;102137.66;;;7.84;56.07
7524;BME280;3803;51.666;7.630;2024-01-30T00:10:33;102135.78;;;7.81;56.41
7524;BME280;3803;51.666;7.630;2024-01-30T00:10:53;102134.19;;;7.84;56.37
7524;BME280;3803;51.666;7.630;2024-01-30T00:11:14;102135.78;;;7.81;56.00
7524;BME280;3803;51.666;7.630;2024-01-30T00:11:35;102140.09;;;7.81;56.48
7524;BME280;3803;51.666;7.630;2024-01-30T00:11:56;102143.84;;;7.86;56.36
7524;BME280;3803;51.666;7.630;2024-01-30T00:12:17;102131.28;;;7.79;55.90
7524;BME280;3803;51.666;7.630;2024-01-30T00:12:40;102136.78;;;7.84;56.77
7524;BME280;3803;51.666;7.630;2024-01-30T00:13:01;102132.00;;;7.76;56.39
7524;BME280;3803;51.666;7.630;2024-01-30T00:13:21;102143.50;;;7.80;56.54
7524;BME280;3803;51.666;7.630;2024-01-30T00:13:43;102133.88;;;7.79;56.23
7524;BME280;3803;51.666;7.630;2024-01-30T00:14:04;102141.16;;;7.85;56.32
7524;BME280;3803;51.666;7.630;2024-01-30T00:14:24;102130.19;;;7.75;56.44
7524;BME280;3803;51.666;7.630;2024-01-30T00:23:03;102134.81;;;7.66;56.45
7524;BME280;3803;51.666;7.630;2024-01-30T00:23:24;102138.63;;;7.71;56.09
7524;BME280;3803;51.666;7.630;2024-01-30T00:23:47;102128.81;;;7.67;56.05
7524;BME280;3803;51.666;7.630;2024-01-30T00:24:08;102133.94;;;7.65;56.47
7524;BME280;3803;51.666;7.630;2024-01-30T00:24:29;102131.53;;;7.68;56.12
7524;BME280;3803;51.666;7.630;2024-01-30T00:24:49;102125.13;;;7.63;55.89
7524;BME280;3803;51.666;7.630;2024-01-30T00:25:10;102142.09;;;7.72;56.33
7524;BME280;3803;51.666;7.630;2024-01-30T00:25:31;102145.50;;;7.71;56.53
7524;BME280;3803;51.666;7.630;2024-01-30T00:25:51;102137.53;;;7.67;56.42
7524;BME280;3803;51.666;7.630;2024-01-30T00:26:12;102123.34;;;7.62;56.61
7524;BME280;3803;51.666;7.630;2024-01-30T00:26:33;102125.94;;;7.62;56.41
7524;BME280;3803;51.666;7.630;2024-01-30T00:26:53;102137.53;;;7.67;56.30
7524;BME280;3803;51.666;7.630;2024-01-30T00:27:15;102127.72;;;7.63;56.37
7524;BME280;3803;51.666;7.630;2024-01-30T00:27:35;102130.31;;;7.63;56.18
7524;BME280;3803;51.666;7.630;2024-01-30T00:27:56;102135.53;;;7.63;56.32
7524;BME280;3803;51.666;7.630;2024-01-30T00:28:16;102130.97;;;7.59;56.12
7524;BME280;3803;51.666;7.630;2024-01-30T00:28:43;102133.66;;;7.61;56.17
7524;BME280;3803;51.666;7.630;2024-01-30T00:29:04;102135.53;;;7.63;56.23
7524;BME280;3803;51.666;7.630;2024-01-30T00:29:24;102137.34;;;7.64;56.37
7524;BME280;3803;51.666;7.630;2024-01-30T00:29:49;102135.53;;;7.63;56.43
7524;BME280;3803;51.666;7.630;2024-01-30T00:30:10;102139.72;;;7.61;56.49
7524;BME280;3803;51.666;7.630;2024-01-30T00:30:31;102129.16;;;7.58;56.51
7524;BME280;3803;51.666;7.630;2024-01-30T00:30:52;102129.97;;;7.57;56.42
7524;BME280;3803;51.666;7.630;2024-01-30T00:31:12;102126.56;;;7.58;56.30
7524;BME280;3803;51.666;7.630;2024-01-30T00:31:33;102135.16;;;7.57;56.15
7524;BME280;3803;51.666;7.630;2024-01-30T00:31:54;102145.03;;;7.63;56.28
7524;BME280;3803;51.666;7.630;2024-01-30T00:32:14;102141.63;;;7.64;56.30
7524;BME280;3803;51.666;7.630;2024-01-30T00:32:35;102133.56;;;7.59;56.08
7524;BME280;3803;51.666;7.630;2024-01-30T00:32:55;102138.75;;;7.59;56.43
7524;BME280;3803;51.666;7.630;2024-01-30T00:33:16;102142.34;;;7.61;56.02
7524;BME280;3803;51.666;7.630;2024-01-30T00:33:36;102137.94;;;7.60;56.27
7524;BME280;3803;51.666;7.630;2024-01-30T00:33:57;102131.94;;;7.61;56.02
7524;BME280;3803;51.666;7.630;2024-01-30T00:34:18;102137.13;;;7.61;56.41
7524;BME280;3803;51.666;7.630;2024-01-30T00:34:38;102137.75;;;7.57;56.16
7524;BME280;3803;51.666;7.630;2024-01-30T00:34:59;102148.50;;;7.63;56.39
7524;BME280;3803;51.666;7.630;2024-01-30T00:35:20;102136.97;;;7.58;56.32
7524;BME280;3803;51.666;7.630;2024-01-30T00:35:42;102137.94;;;7.60;56.13
7524;BME280;3803;51.666;7.630;2024-01-30T00:36:03;102135.16;;;7.57;56.09
7524;BME280;3803;51.666;7.630;2024-01-30T00:36:23;102137.84;;;7.59;55.81
7524;BME280;3803;51.666;7.630;2024-01-30T00:36:44;102141.34;;;7.59;55.83
7524;BME280;3803;51.666;7.630;2024-01-30T00:37:04;102128.94;;;7.55;56.01
7524;BME280;3803;51.666;7.630;2024-01-30T00:37:25;102137.75;;;7.57;55.95
7524;BME280;3803;51.666;7.630;2024-01-30T00:37:46;102136.97;;;7.58;56.00
7524;BME280;3803;51.666;7.630;2024-01-30T00:38:06;102127.28;;;7.56;56.65
7524;BME280;3803;51.666;7.630;2024-01-30T00:38:28;102137.75;;;7.57;56.13
7524;BME280;3803;51.666;7.630;2024-01-30T00:38:48;102142.03;;;7.57;56.50
7524;BME280;3803;51.666;7.630;2024-01-30T00:39:09;102136.69;;;7.53;56.08
7524;BME280;3803;51.666;7.630;2024-01-30T00:39:30;102133.16;;;7.53;56.09
7524;BME280;3803;51.666;7.630;2024-01-30T00:39:50;102133.16;;;7.53;56.24
7524;BME280;3803;51.666;7.630;2024-01-30T00:40:11;102135.66;;;7.51;56.00
7524;BME280;3803;51.666;7.630;2024-01-30T00:40:36;102128.78;;;7.52;55.88
7524;BME280;3803;51.666;7.630;2024-01-30T00:40:57;102130.66;;;7.54;56.07
7524;BME280;3803;51.666;7.630;2024-01-30T00:41:18;102127.78;;;7.50;56.12
7524;BME280;3803;51.666;7.630;2024-01-30T00:41:39;102133.97;;;7.52;56.15
7524;BME280;3803;51.666;7.630;2024-01-30T00:42:00;102131.19;;;7.49;55.95
7524;BME280;3803;51.666;7.630;2024-01-30T00:42:20;102140.25;;;7.56;55.98
7524;BME280;3803;51.666;7.630;2024-01-30T00:42:42;102141.94;;;7.55;56.17
7524;BME280;3803;51.666;7.630;2024-01-30T00:43:03;102127.78;;;7.50;55.72
7524;BME280;3803;51.666;7.630;2024-01-30T00:43:23;102120.59;;;7.46;56.29
7524;BME280;3803;51.666;7.630;2024-01-30T00:43:45;102133.88;;;7.50;56.26
7524;BME280;3803;51.666;7.630;2024-01-30T00:44:06;102124.69;;;7.42;56.32
7524;BME280;3803;51.666;7.630;2024-01-30T00:44:27;102140.09;;;7.52;56.15
7524;BME280;3803;51.666;7.630;2024-01-30T00:44:47;102130.09;;;7.45;56.15
7524;BME280;3803;51.666;7.630;2024-01-30T00:45:15;102146.03;;;7.51;56.03
7524;BME280;3803;51.666;7.630;2024-01-30T00:45:36;102128.19;;;7.43;55.99
7524;BME280;3803;51.666;7.630;2024-01-30T00:45:56;102124.69;;;7.42;56.10
7524;BME280;3803;51.666;7.630;2024-01-30T00:46:18;102130.97;;;7.46;56.20
7524;BME280;3803;51.666;7.630;2024-01-30T00:46:39;102130.81;;;7.43;55.98
7524;BME280;3803;51.666;7.630;2024-01-30T00:46:59;102129.09;;;7.43;55.99
7524;BME280;3803;51.666;7.630;2024-01-30T00:47:20;102129.19;;;7.45;56.09
7524;BME280;3803;51.666;7.630;2024-01-30T00:47:41;102137.78;;;7.44;56.30
7524;BME280;3803;51.666;7.630;2024-01-30T00:48:02;102123.59;;;7.38;56.06
7524;BME280;3803;51.666;7.630;2024-01-30T00:48:22;102128.19;;;7.43;56.23
7524;BME280;3803;51.666;7.630;2024-01-30T00:48:43;102125.59;;;7.43;56.44
7524;BME280;3803;51.666;7.630;2024-01-30T00:49:04;102137.09;;;7.46;56.07
7524;BME280;3803;51.666;7.630;2024-01-30T00:49:24;102133.56;;;7.46;55.95
7524;BME280;3803;51.666;7.630;2024-01-30T00:49:45;102134.56;;;7.48;56.13
7524;BME280;3803;51.666;7.630;2024-01-30T00:50:06;102137.09;;;7.46;55.93
7524;BME280;3803;51.666;7.630;2024-01-30T00:50:33;102136.19;;;7.46;56.00
7524;BME280;3803;51.666;7.630;2024-01-30T00:50:53;102129.19;;;7.45;55.83
7524;BME280;3803;51.666;7.630;2024-01-30T00:51:14;102121.22;;;7.42;56.00
7524;BME280;3803;51.666;7.630;2024-01-30T00:51:35;102123.81;;;7.42;55.87
7524;BME280;3803;51.666;7.630;2024-01-30T00:51:55;102126.50;;;7.43;55.97
7524;BME280;3803;51.666;7.630;2024-01-30T00:52:16;102119.44;;;7.40;55.75
7524;BME280;3803;51.666;7.630;2024-01-30T00:52:37;102124.00;;;7.45;56.21
7524;BME280;3803;51.666;7.630;2024-01-30T00:52:59;102120.41;;;7.43;55.87
7524;BME280;3803;51.666;7.630;2024-01-30T00:53:20;102120.41;;;7.43;56.13
7524;BME280;3803;51.666;7.630;2024-01-30T00:53:40;102129.19;;;7.45;56.29
7524;BME280;3803;51.666;7.630;2024-01-30T00:54:02;102130.00;;;7.44;56.20
7524;BME280;3803;51.666;7.630;2024-01-30T00:54:23;102134.56;;;7.48;56.12
7524;BME280;3803;51.666;7.630;2024-01-30T00:54:44;102130.19;;;7.47;55.82
7524;BME280;3803;51.666;7.630;2024-01-30T00:55:05;102126.59;;;7.45;55.87
7524;BME280;3803;51.666;7.630;2024-01-30T00:55:25;102118.63;;;7.42;56.18
7524;BME280;3803;51.666;7.630;2024-01-30T00:55:46;102118.63;;;7.42;55.65
7524;BME280;3803;51.666;7.630;2024-01-30T00:56:07;102134.56;;;7.48;56.10
7524;BME280;3803;51.666;7.630;2024-01-30T00:56:28;102122.91;;;7.41;56.19
7524;BME280;3803;51.666;7.630;2024-01-30T00:56:48;102118.41;;;7.38;55.98
7524;BME280;3803;51.666;7.630;2024-01-30T00:57:09;102125.72;;;7.44;56.01
7524;BME280;3803;51.666;7.630;2024-01-30T00:57:29;102127.41;;;7.44;55.98
7524;BME280;3803;51.666;7.630;2024-01-30T00:57:50;102121.28;;;7.43;56.13
7524;BME280;3803;51.666;7.630;2024-01-30T00:58:11;102124.81;;;7.44;56.23
7524;BME280;3803;51.666;7.630;2024-01-30T00:58:31;102132.97;;;7.50;55.88
7524;BME280;3803;51.666;7.630;2024-01-30T00:58:52;102128.59;;;7.49;55.54
7524;BME280;3803;51.666;7.630;2024-01-30T00:59:13;102132.97;;;7.50;56.17
7524;BME280;3803;51.666;7.630;2024-01-30T00:59:33;102121.28;;;7.43;56.22
7524;BME280;3803;51.666;7.630;2024-01-30T00:59:54;102123.81;;;7.42;55.61
7524;BME280;3803;51.666;7.630;2024-01-30T01:00:15;102133.78;;;7.49;55.96
7524;BME280;3803;51.666;7.630;2024-01-30T01:00:39;102127.41;;;7.44;56.18
7524;BME280;3803;51.666;7.630;2024-01-30T01:00:59;102123.81;;;7.42;55.76
7524;BME280;3803;51.666;7.630;2024-01-30T01:01:20;102132.59;;;7.44;55.86
7524;BME280;3803;51.666;7.630;2024-01-30T01:01:40;102125.78;;;7.46;55.93
7524;BME280;3803;51.666;7.630;2024-01-30T01:02:01;102116.81;;;7.40;56.05
7524;BME280;3803;51.666;7.630;2024-01-30T01:02:22;102130.81;;;7.43;56.04
7524;BME280;3803;51.666;7.630;2024-01-30T01:02:43;102134.56;;;7.48;56.33
7524;BME280;3803;51.666;7.630;2024-01-30T01:03:03;102129.09;;;7.43;56.14
7524;BME280;3803;51.666;7.630;2024-01-30T01:03:24;102127.41;;;7.44;55.98
7524;BME280;3803;51.666;7.630;2024-01-30T01:03:45;102124.00;;;7.45;55.75
7524;BME280;3803;51.666;7.630;2024-01-30T01:04:05;102118.63;;;7.42;56.07
7524;BME280;3803;51.666;7.630;2024-01-30T01:04:26;102117.91;;;7.44;56.18
7524;BME280;3803;51.666;7.630;2024-01-30T01:04:47;102131.09;;;7.47;55.95
7524;BME280;3803;51.666;7.630;2024-01-30T01:05:07;102134.56;;;7.48;55.90
7524;BME280;3803;51.666;7.630;2024-01-30T01:05:28;102124.91;;;7.45;55.46
7524;BME280;3803;51.666;7.630;2024-01-30T01:05:49;102121.41;;;7.45;56.28
7524;BME280;3803;51.666;7.630;2024-01-30T01:06:10;102132.06;;;7.49;55.60
7524;BME280;3803;51.666;7.630;2024-01-30T01:06:31;102128.50;;;7.47;56.17
7524;BME280;3803;51.666;7.630;2024-01-30T01:06:51;102128.50;;;7.47;55.97
7524;BME280;3803;51.666;7.630;2024-01-30T01:07:12;102124.00;;;7.45;56.32
7524;BME280;3803;51.666;7.630;2024-01-30T01:07:32;102125.91;;;7.47;56.06
7524;BME280;3803;51.666;7.630;2024-01-30T01:07:53;102121.22;;;7.42;55.99
7524;BME280;3803;51.666;7.630;2024-01-30T01:08:14;102120.41;;;7.43;55.79
7524;BME280;3803;51.666;7.630;2024-01-30T01:08:35;102122.09;;;7.42;55.55
7524;BME280;3803;51.666;7.630;2024-01-30T01:08:56;102120.41;;;7.43;55.62
7524;BME280;3803;51.666;7.630;2024-01-30T01:09:16;102123.13;;;7.44;55.80
7524;BME280;3803;51.666;7.630;2024-01-30T01:09:37;102118.81;;;7.45;55.69
7524;BME280;3803;51.666;7.630;2024-01-30T01:09:58;102123.19;;;7.46;55.89
7524;BME280;3803;51.666;7.630;2024-01-30T01:10:19;102114.13;;;7.39;55.68
7524;BME280;3803;51.666;7.630;2024-01-30T01:10:39;102118.69;;;7.43;55.97
7524;BME280;3803;51.666;7.630;2024-01-30T01:11:00;102119.72;;;7.45;55.87
7524;BME280;3803;51.666;7.630;2024-01-30T01:11:20;102127.97;;;7.53;56.30
7524;BME280;3803;51.666;7.630;2024-01-30T01:11:41;102118.28;;;7.50;56.21
7524;BME280;3803;51.666;7.630;2024-01-30T01:12:02;102123.75;;;7.55;56.18
7524;BME280;3803;51.666;7.630;2024-01-30T01:12:23;102120.38;;;7.56;55.71
7524;BME280;3803;51.666;7.630;2024-01-30T01:12:44;102117.78;;;7.56;55.89
7524;BME280;3803;51.666;7.630;2024-01-30T01:13:05;102124.94;;;7.60;55.70
7524;BME280;3803;51.666;7.630;2024-01-30T01:13:25;102115.97;;;7.55;55.81
7524;BME280;3803;51.666;7.630;2024-01-30T01:13:47;102132.94;;;7.63;55.80
7524;BME280;3803;51.666;7.630;2024-01-30T01:14:08;102114.38;;;7.57;55.98
7524;BME280;3803;51.666;7.630;2024-01-30T01:14:29;102131.94;;;7.61;55.84
7524;BME280;3803;51.666;7.630;2024-01-30T01:14:50;102116.97;;;7.57;55.81
7524;BME280;3803;51.666;7.630;2024-01-30T01:15:11;102121.38;;;7.58;55.54
7524;BME280;3803;51.666;7.630;2024-01-30T01:15:32;102116.97;;;7.57;55.58
7524;BME280;3803;51.666;7.630;2024-01-30T01:15:52;102123.88;;;7.57;56.10
7524;BME280;3803;51.666;7.630;2024-01-30T01:16:13;102121.97;;;7.54;55.91
7524;BME280;3803;51.666;7.630;2024-01-30T01:16:34;102117.56;;;7.53;55.87
7524;BME280;3803;51.666;7.630;2024-01-30T01:16:54;102124.78;;;7.57;56.05
7524;BME280;3803;51.666;7.630;2024-01-30T01:17:15;102115.97;;;7.55;56.14
7524;BME280;3803;51.666;7.630;2024-01-30T01:17:37;102112.59;;;7.56;56.07
7524;BME280;3803;51.666;7.630;2024-01-30T01:17:58;102117.06;;;7.59;55.59
7524;BME280;3803;51.666;7.630;2024-01-30T01:18:18;102114.16;;;7.54;55.55
7524;BME280;3803;51.666;7.630;2024-01-30T01:18:41;102119.56;;;7.57;55.88
7524;BME280;3803;51.666;7.630;2024-01-30T01:19:02;102116.97;;;7.57;55.63
7524;BME280;3803;51.666;7.630;2024-01-30T01:19:23;102123.97;;;7.58;55.89
7524;BME280;3803;51.666;7.630;2024-01-30T01:19:44;102117.78;;;7.56;55.56
7524;BME280;3803;51.666;7.630;2024-01-30T01:20:05;102119.56;;;7.57;55.26
7524;BME280;3803;51.666;7.630;2024-01-30T01:20:26;102113.28;;;7.53;55.73
7524;BME280;3803;51.666;7.630;2024-01-30T01:20:47;102113.19;;;7.52;55.86
7524;BME280;3803;51.666;7.630;2024-01-30T01:21:07;102125.38;;;7.53;55.70
7524;BME280;3803;51.666;7.630;2024-01-30T01:21:28;102115.78;;;7.52;55.99
7524;BME280;3803;51.666;7.630;2024-01-30T01:21:49;102117.41;;;7.50;55.62
7524;BME280;3803;51.666;7.630;2024-01-30T01:22:10;102113.78;;;7.48;55.61
7524;BME280;3803;51.666;7.630;2024-01-30T01:22:30;102123.88;;;7.57;55.73
7524;BME280;3803;51.666;7.630;2024-01-30T01:22:51;102105.41;;;7.52;55.38
7524;BME280;3803;51.666;7.630;2024-01-30T01:23:13;102115.09;;;7.54;55.68
7524;BME280;3803;51.666;7.630;2024-01-30T01:23:33;102108.78;;;7.51;55.94
7524;BME280;3803;51.666;7.630;2024-01-30T01:23:54;102118.50;;;7.53;55.94
7524;BME280;3803;51.666;7.630;2024-01-30T01:24:15;102127.38;;;7.57;56.05
7524;BME280;3803;51.666;7.630;2024-01-30T01:24:36;102107.19;;;7.53;55.26
7524;BME280;3803;51.666;7.630;2024-01-30T01:24:57;102119.38;;;7.54;55.82
7524;BME280;3803;51.666;7.630;2024-01-30T01:25:17;102116.19;;;7.58;55.78
7524;BME280;3803;51.666;7.630;2024-01-30T01:25:38;102108.09;;;7.53;55.72
7524;BME280;3803;51.666;7.630;2024-01-30T01:25:58;102110.59;;;7.52;55.64
7524;BME280;3803;51.666;7.630;2024-01-30T01:26:20;102118.56;;;7.55;55.53
7524;BME280;3803;51.666;7.630;2024-01-30T01:26:41;102121.16;;;7.55;55.44
7524;BME280;3803;51.666;7.630;2024-01-30T01:27:02;102124.78;;;7.57;55.20
7524;BME280;3803;51.666;7.630;2024-01-30T01:27:23;102115.09;;;7.54;55.96
7524;BME280;3803;51.666;7.630;2024-01-30T01:27:44;102122.19;;;7.57;55.60
7524;BME280;3803;51.666;7.630;2024-01-30T01:28:11;102121.16;;;7.55;55.54
7524;BME280;3803;51.666;7.630;2024-01-30T01:28:32;102110.59;;;7.52;55.44
7524;BME280;3803;51.666;7.630;2024-01-30T01:28:53;102120.19;;;7.53;55.42
7524;BME280;3803;51.666;7.630;2024-01-30T01:29:13;102121.16;;;7.55;55.60
7524;BME280;3803;51.666;7.630;2024-01-30T01:29:35;102115.78;;;7.52;55.57
7524;BME280;3803;51.666;7.630;2024-01-30T01:29:56;102111.50;;;7.52;55.40
7524;BME280;3803;51.666;7.630;2024-01-30T01:30:17;102125.38;;;7.53;55.48
7524;BME280;3803;51.666;7.630;2024-01-30T01:30:42;102114.28;;;7.56;55.47
7524;BME280;3803;51.666;7.630;2024-01-30T01:31:02;102112.19;;;7.50;55.85
7524;BME280;3803;51.666;7.630;2024-01-30T01:31:25;102114.16;;;7.54;55.56
7524;BME280;3803;51.666;7.630;2024-01-30T01:31:49;102115.97;;;7.55;55.20
7524;BME280;3803;51.666;7.630;2024-01-30T01:32:10;102117.78;;;7.56;55.52
7524;BME280;3803;51.666;7.630;2024-01-30T01:32:31;102126.56;;;7.58;55.82
7524;BME280;3803;51.666;7.630;2024-01-30T01:32:52;102112.38;;;7.53;55.52
7524;BME280;3803;51.666;7.630;2024-01-30T01:33:16;102114.16;;;7.54;55.42
7524;BME280;3803;51.666;7.630;2024-01-30T01:33:37;102115.09;;;7.54;55.18
7524;BME280;3803;51.666;7.630;2024-01-30T01:33:58;102109.19;;;7.57;55.65
7524;BME280;3803;51.666;7.630;2024-01-30T01:34:19;102115.19;;;7.56;55.63
7524;BME280;3803;51.666;7.630;2024-01-30T01:34:39;102114.28;;;7.56;55.43
7524;BME280;3803;51.666;7.630;2024-01-30T01:35:00;102108.91;;;7.52;55.29
7524;BME280;3803;51.666;7.630;2024-01-30T01:35:23;102113.75;;;7.61;55.48
7524;BME280;3803;51.666;7.630;2024-01-30T01:35:48;102118.84;;;7.60;55.28
7524;BME280;3803;51.666;7.630;2024-01-30T01:36:08;102107.19;;;7.53;55.48
7524;BME280;3803;51.666;7.630;2024-01-30T01:36:29;102111.78;;;7.57;55.53
7524;BME280;3803;51.666;7.630;2024-01-30T01:36:50;102114.38;;;7.57;55.29
7524;BME280;3803;51.666;7.630;2024-01-30T01:37:10;102129.44;;;7.63;55.13
7524;BME280;3803;51.666;7.630;2024-01-30T01:37:31;102104.69;;;7.54;55.38
7524;BME280;3803;51.666;7.630;2024-01-30T01:37:52;102122.47;;;7.62;55.27
7524;BME280;3803;51.666;7.630;2024-01-30T01:38:16;102112.66;;;7.58;55.48
7524;BME280;3803;51.666;7.630;2024-01-30T01:38:37;102111.69;;;7.56;55.19
7524;BME280;3803;51.666;7.630;2024-01-30T01:38:58;102108.00;;;7.52;55.28
7524;BME280;3803;51.666;7.630;2024-01-30T01:39:18;102112.50;;;7.54;55.60
7524;BME280;3803;51.666;7.630;2024-01-30T01:39:39;102105.41;;;7.52;55.41
7524;BME280;3803;51.666;7.630;2024-01-30T01:40:00;102111.41;;;7.51;55.18
7524;BME280;3803;51.666;7.630;2024-01-30T01:40:23;102124.78;;;7.57;55.29
7524;BME280;3803;51.666;7.630;2024-01-30T01:40:44;102119.38;;;7.54;55.52
7524;BME280;3803;51.666;7.630;2024-01-30T01:41:05;102117.41;;;7.50;55.63
7524;BME280;3803;51.666;7.630;2024-01-30T01:41:30;102122.25;;;7.59;55.03
7524;BME280;3803;51.666;7.630;2024-01-30T01:41:51;102114.38;;;7.57;55.20
7524;BME280;3803;51.666;7.630;2024-01-30T01:42:12;102113.28;;;7.53;55.34
7524;BME280;3803;51.666;7.630;2024-01-30T01:42:32;102125.66;;;7.58;55.57
7524;BME280;3803;51.666;7.630;2024-01-30T01:42:54;102124.78;;;7.57;55.31
7524;BME280;3803;51.666;7.630;2024-01-30T01:43:15;102106.31;;;7.52;55.39
7524;BME280;3803;51.666;7.630;2024-01-30T01:43:35;102116.19;;;7.58;55.41
7524;BME280;3803;51.666;7.630;2024-01-30T01:43:59;102110.78;;;7.55;55.10
7524;BME280;3803;51.666;7.630;2024-01-30T01:44:20;102111.56;;;7.54;55.42
7524;BME280;3803;51.666;7.630;2024-01-30T01:44:40;102108.00;;;7.52;55.32
7524;BME280;3803;51.666;7.630;2024-01-30T01:45:01;102103.59;;;7.51;55.26
7524;BME280;3803;51.666;7.630;2024-01-30T01:45:22;102111.50;;;7.52;55.50
7524;BME280;3803;51.666;7.630;2024-01-30T01:45:42;102113.19;;;7.52;55.31
7524;BME280;3803;51.666;7.630;2024-01-30T01:46:03;102112.38;;;7.53;55.26
7524;BME280;3803;51.666;7.630;2024-01-30T01:46:26;102106.09;;;7.49;55.12
7524;BME280;3803;51.666;7.630;2024-01-30T01:46:47;102106.09;;;7.49;55.22
7524;BME280;3803;51.666;7.630;2024-01-30T01:47:08;102115.91;;;7.53;55.61
7524;BME280;3803;51.666;7.630;2024-01-30T01:47:29;102119.38;;;7.54;55.20
7524;BME280;3803;51.666;7.630;2024-01-30T01:47:52;102107.00;;;7.50;55.49
7524;BME280;3803;51.666;7.630;2024-01-30T01:48:13;102110.59;;;7.52;55.28
7524;BME280;3803;51.666;7.630;2024-01-30T01:48:34;102116.69;;;7.52;55.58
7524;BME280;3803;51.666;7.630;2024-01-30T01:48:55;102121.25;;;7.57;55.20
7524;BME280;3803;51.666;7.630;2024-01-30T01:49:17;102113.28;;;7.53;55.10
7524;BME280;3803;51.666;7.630;2024-01-30T01:49:39;102124.56;;;7.54;55.48
7524;BME280;3803;51.666;7.630;2024-01-30T01:50:00;102115.78;;;7.52;55.23
7524;BME280;3803;51.666;7.630;2024-01-30T01:50:21;102107.81;;;7.49;55.58
7524;BME280;3803;51.666;7.630;2024-01-30T01:50:42;102118.50;;;7.53;55.41
7524;BME280;3803;51.666;7.630;2024-01-30T01:51:04;102117.41;;;7.50;54.98
7524;BME280;3803;51.666;7.630;2024-01-30T01:51:27;102113.78;;;7.48;55.23
7524;BME280;3803;51.666;7.630;2024-01-30T01:51:48;102122.97;;;7.56;55.11
7524;BME280;3803;51.666;7.630;2024-01-30T01:52:09;102115.78;;;7.52;55.58
7524;BME280;3803;51.666;7.630;2024-01-30T01:52:30;102113.78;;;7.48;55.54
7524;BME280;3803;51.666;7.630;2024-01-30T01:52:52;102116.38;;;7.48;55.64
7524;BME280;3803;51.666;7.630;2024-01-30T01:53:13;102115.59;;;7.49;55.23
7524;BME280;3803;51.666;7.630;2024-01-30T01:53:35;102118.28;;;7.50;55.25
7524;BME280;3803;51.666;7.630;2024-01-30T01:54:09;102128.06;;;7.54;55.24
7524;BME280;3803;51.666;7.630;2024-01-30T01:54:30;102128.19;;;7.56;55.17
7524;BME280;3803;51.666;7.630;2024-01-30T01:54:51;102117.56;;;7.53;55.20
7524;BME280;3803;51.666;7.630;2024-01-30T01:55:13;102112.91;;;7.47;55.25
7524;BME280;3803;51.666;7.630;2024-01-30T01:55:35;102115.59;;;7.49;55.10
7524;BME280;3803;51.666;7.630;2024-01-30T01:55:56;102112.19;;;7.50;55.47
7524;BME280;3803;51.666;7.630;2024-01-30T01:56:17;102112.91;;;7.47;55.37
7524;BME280;3803;51.666;7.630;2024-01-30T01:56:38;102110.41;;;7.49;55.01
7524;BME280;3803;51.666;7.630;2024-01-30T01:56:59;102123.59;;;7.52;55.20
7524;BME280;3803;51.666;7.630;2024-01-30T01:57:20;102116.38;;;7.48;55.17
7524;BME280;3803;51.666;7.630;2024-01-30T01:57:41;102117.41;;;7.50;55.33
7524;BME280;3803;51.666;7.630;2024-01-30T01:58:02;102112.91;;;7.47;55.25
7524;BME280;3803;51.666;7.630;2024-01-30T01:58:25;102115.59;;;7.49;55.33
7524;BME280;3803;51.666;7.630;2024-01-30T01:58:49;102113.78;;;7.48;55.27
7524;BME280;3803;51.666;7.630;2024-01-30T01:59:10;102114.59;;;7.47;55.35
7524;BME280;3803;51.666;7.630;2024-01-30T01:59:30;102122.59;;;7.50;55.16
7524;BME280;3803;51.666;7.630;2024-01-30T01:59:52;102123.41;;;7.49;55.28
7524;BME280;3803;51.666;7.630;2024-01-30T02:00:13;102117.41;;;7.50;55.35
7524;BME280;3803;51.666;7.630;2024-01-30T02:00:35;102118.09;;;7.47;55.41
7524;BME280;3803;51.666;7.630;2024-01-30T02:00:59;102122.59;;;7.50;55.42
7524;BME280;3803;51.666;7.630;2024-01-30T02:01:21;102115.50;;;7.47;55.33
7524;BME280;3803;51.666;7.630;2024-01-30T02:01:41;102110.31;;;7.47;55.45
7524;BME280;3803;51.666;7.630;2024-01-30T02:02:03;102104.94;;;7.44;55.35
7524;BME280;3803;51.666;7.630;2024-01-30T02:02:26;102115.59;;;7.49;55.37
7524;BME280;3803;51.666;7.630;2024-01-30T02:02:47;102100.72;;;7.46;55.20
7524;BME280;3803;51.666;7.630;2024-01-30T02:03:10;102110.47;;;7.50;55.03
7524;BME280;3803;51.666;7.630;2024-01-30T02:03:32;102115.59;;;7.49;55.24